Mc Donald, Pennsylvania
Current Conditions -  °F | °C
As of 7:51 AM on Friday 24 Oct 2014 (Local Time) from KPIT Reporting Station
Overcast Overcast  
Wind Chill: 36°   Ceiling: 25000
Heat Index: 36°   Visibility: 10mi
Dew Point: 35°   Wind: 0mph
Humidity: 97%   Direction: NA
Pressure: 30.1"   Gusts: NA
Location:  40.3662°N, 80.2739°W
Report Text: KPIT 241151Z 00000KT 10SM FEW130 OVC250 02/02 A3010 RMK AO2 SLP206 T00220017 10056 20022 51010
Loading
Personal Weather Stations






























Interactive Weather Map New forecast layout! Learn more

10-Day Weather Forecast

Advertisements
Track Severe Weather on mobile